North Conway, New Hampshire
Current Conditions -  °F | °C
As of 1:54 PM on Thursday 18 Dec 2014 (Local Time) from KIZG Reporting Station
Broken Clouds Broken Clouds  
Wind Chill:   Ceiling: 4000
Heat Index:   Visibility: 10mi
Dew Point: -3°   Wind: 8mph
Humidity: 62%   Direction: 270°W
Pressure: 29.69"   Gusts: 20mph
Location:  44.05°N, 71.13°W
Report Text: KIZG 181854Z AUTO 27007G17KT 230V310 10SM BKN040 BKN050 03/M03 A2969 RMK AO2 PK WND 27027/1816 SLP059 T00331033
Loading
Personal Weather Stations






























Interactive Weather Map New forecast layout! Learn more

10-Day Weather Forecast

Advertisements
Track Severe Weather on mobile